This is the latest recevied weather packets stored in our database for station/object G8LMY. If no packets are shown the sender has not sent any weather packets the latest 1 day(s).
| Time | Temp. | Humidity | Pressure | Rain* | Wind** | Luminosity | Snow |
|---|---|---|---|---|---|---|---|
| 1777992833 | 15° C | 65% | 1011.2 hPa | 0 mm | 0.45 m/s, 76° | - | - |
| 1777991934 | 15° C | 65% | 1011.3 hPa | 0 mm | 0 m/s | - | - |
| 1777991033 | 15° C | 66% | 1011.4 hPa | 0 mm | 0 m/s | - | - |
| 1777990133 | 15° C | 67% | 1011.4 hPa | 0 mm | 0 m/s | - | - |
| 1777989233 | 15° C | 66% | 1011.4 hPa | 0 mm | 0.45 m/s, 325° | - | - |
| 1777988333 | 15° C | 67% | 1011.6 hPa | 0 mm | 0 m/s | - | - |
| 1777987433 | 15° C | 67% | 1011.6 hPa | 0 mm | 0.45 m/s, 333° | - | - |
| 1777986533 | 15.56° C | 63% | 1011.6 hPa | 0 mm | 0 m/s | - | - |
| 1777985633 | 16.11° C | 63% | 1011.6 hPa | 0 mm | 0.45 m/s, 350° | - | - |
| 1777984734 | 15.56° C | 66% | 1011.7 hPa | 0 mm | 0 m/s | - | - |
| 1777983833 | 15.56° C | 64% | 1011.7 hPa | 0 mm | 0 m/s | - | - |
| 1777982933 | 15.56° C | 67% | 1011.7 hPa | 0 mm | 0 m/s | - | - |
| 1777981133 | 13.89° C | 73% | 1011.9 hPa | 0 mm | 0.45 m/s, 297° | - | - |
| 1777980233 | 13.89° C | 75% | 1012.1 hPa | 0 mm | 0 m/s | - | - |
| 1777979333 | 12.78° C | 77% | 1012.2 hPa | 0 mm | 0.45 m/s, 331° | - | - |
| 1777978433 | 12.22° C | 78% | 1012.3 hPa | 0 mm | 0.45 m/s, 17° | - | - |
| 1777977533 | 12.78° C | 77% | 1012.3 hPa | 0 mm | 0 m/s | - | - |
| 1777976633 | 12.78° C | 77% | 1012.5 hPa | 0 mm | 0 m/s | - | - |
| 1777975734 | 12.78° C | 76% | 1012.5 hPa | 0 mm | 0.45 m/s, 43° | - | - |
| 1777974833 | 12.22° C | 77% | 1012.5 hPa | 0 mm | 0.45 m/s, 335° | - | - |
| 1777973934 | 12.22° C | 79% | 1012.5 hPa | 0 mm | 0 m/s | - | - |
| 1777973033 | 12.22° C | 79% | 1012.6 hPa | 0 mm | 0.89 m/s, 59° | - | - |
| 1777972133 | 12.22° C | 82% | 1012.6 hPa | 0 mm | 0.45 m/s, 342° | - | - |
| 1777971233 | 11.67° C | 83% | 1012.7 hPa | 0 mm | 0.45 m/s, 355° | - | - |
| 1777970334 | 11.67° C | 84% | 1012.8 hPa | 0 mm | 0 m/s | - | - |
* Rain latest hour (hover to see other rain measurements)
** Current wind speed in m/s (hover to see current wind gust speed)